sensor_id;sensor_type;location;lat;lon;timestamp;P1;durP1;ratioP1;P2;durP2;ratioP2
26038;SDS011;13815;52.374;4.882;2024-03-29T00:01:44;23.00;;;20.90;;
26038;SDS011;13815;52.374;4.882;2024-03-29T00:04:10;22.75;;;20.75;;
26038;SDS011;13815;52.374;4.882;2024-03-29T00:06:35;22.58;;;20.58;;
26038;SDS011;13815;52.374;4.882;2024-03-29T00:09:00;23.20;;;21.20;;
26038;SDS011;13815;52.374;4.882;2024-03-29T00:11:26;22.55;;;20.65;;
26038;SDS011;13815;52.374;4.882;2024-03-29T00:13:52;22.55;;;20.65;;
26038;SDS011;13815;52.374;4.882;2024-03-29T00:16:17;23.10;;;21.20;;
26038;SDS011;13815;52.374;4.882;2024-03-29T00:18:43;22.10;;;20.30;;
26038;SDS011;13815;52.374;4.882;2024-03-29T00:21:08;21.88;;;20.13;;
26038;SDS011;13815;52.374;4.882;2024-03-29T00:23:33;21.05;;;19.45;;
26038;SDS011;13815;52.374;4.882;2024-03-29T00:25:59;21.25;;;19.65;;
26038;SDS011;13815;52.374;4.882;2024-03-29T00:28:24;20.90;;;19.30;;
26038;SDS011;13815;52.374;4.882;2024-03-29T00:30:52;20.33;;;18.83;;
26038;SDS011;13815;52.374;4.882;2024-03-29T00:33:18;19.42;;;18.02;;
26038;SDS011;13815;52.374;4.882;2024-03-29T00:35:43;19.25;;;17.95;;
26038;SDS011;13815;52.374;4.882;2024-03-29T00:38:08;18.70;;;17.40;;
26038;SDS011;13815;52.374;4.882;2024-03-29T00:40:35;19.65;;;18.25;;
26038;SDS011;13815;52.374;4.882;2024-03-29T00:43:01;19.05;;;17.75;;
26038;SDS011;13815;52.374;4.882;2024-03-29T00:45:26;19.35;;;18.05;;
26038;SDS011;13815;52.374;4.882;2024-03-29T00:47:53;20.00;;;18.60;;
26038;SDS011;13815;52.374;4.882;2024-03-29T00:50:19;19.92;;;18.52;;
26038;SDS011;13815;52.374;4.882;2024-03-29T00:52:45;20.00;;;18.60;;
26038;SDS011;13815;52.374;4.882;2024-03-29T00:55:10;19.02;;;17.73;;
26038;SDS011;13815;52.374;4.882;2024-03-29T00:57:35;20.15;;;18.75;;
26038;SDS011;13815;52.374;4.882;2024-03-29T01:00:01;18.10;;;16.95;;
26038;SDS011;13815;52.374;4.882;2024-03-29T01:02:26;18.60;;;17.40;;
26038;SDS011;13815;52.374;4.882;2024-03-29T01:04:52;17.70;;;16.60;;
26038;SDS011;13815;52.374;4.882;2024-03-29T01:07:17;18.00;;;16.90;;
26038;SDS011;13815;52.374;4.882;2024-03-29T01:09:43;18.20;;;17.00;;
26038;SDS011;13815;52.374;4.882;2024-03-29T01:12:09;17.65;;;16.55;;
26038;SDS011;13815;52.374;4.882;2024-03-29T01:14:34;18.00;;;16.90;;
26038;SDS011;13815;52.374;4.882;2024-03-29T01:17:00;17.38;;;16.35;;
26038;SDS011;13815;52.374;4.882;2024-03-29T01:19:25;17.75;;;16.65;;
26038;SDS011;13815;52.374;4.882;2024-03-29T01:21:51;17.17;;;16.17;;
26038;SDS011;13815;52.374;4.882;2024-03-29T01:24:16;17.40;;;16.40;;
26038;SDS011;13815;52.374;4.882;2024-03-29T01:26:43;16.52;;;15.63;;
26038;SDS011;13815;52.374;4.882;2024-03-29T01:29:09;16.77;;;15.88;;
26038;SDS011;13815;52.374;4.882;2024-03-29T01:31:37;16.85;;;15.88;;
26038;SDS011;13815;52.374;4.882;2024-03-29T01:34:02;16.30;;;15.40;;
26038;SDS011;13815;52.374;4.882;2024-03-29T01:36:28;16.33;;;15.43;;
26038;SDS011;13815;52.374;4.882;2024-03-29T01:38:53;16.58;;;15.68;;
26038;SDS011;13815;52.374;4.882;2024-03-29T01:41:22;16.50;;;15.60;;
26038;SDS011;13815;52.374;4.882;2024-03-29T01:43:48;16.48;;;15.57;;
26038;SDS011;13815;52.374;4.882;2024-03-29T01:46:14;16.40;;;15.50;;
26038;SDS011;13815;52.374;4.882;2024-03-29T01:48:40;16.42;;;15.52;;
26038;SDS011;13815;52.374;4.882;2024-03-29T01:51:05;16.20;;;15.30;;
26038;SDS011;13815;52.374;4.882;2024-03-29T01:53:31;15.30;;;14.60;;
26038;SDS011;13815;52.374;4.882;2024-03-29T01:55:56;14.98;;;14.27;;
26038;SDS011;13815;52.374;4.882;2024-03-29T01:58:23;14.88;;;14.18;;
26038;SDS011;13815;52.374;4.882;2024-03-29T02:00:52;14.60;;;14.00;;
26038;SDS011;13815;52.374;4.882;2024-03-29T02:03:22;15.18;;;14.48;;
26038;SDS011;13815;52.374;4.882;2024-03-29T02:05:48;15.27;;;14.57;;
26038;SDS011;13815;52.374;4.882;2024-03-29T02:08:14;15.48;;;14.75;;
26038;SDS011;13815;52.374;4.882;2024-03-29T02:10:40;16.00;;;15.20;;
26038;SDS011;13815;52.374;4.882;2024-03-29T02:13:06;15.95;;;15.15;;
26038;SDS011;13815;52.374;4.882;2024-03-29T02:15:32;15.75;;;14.98;;
26038;SDS011;13815;52.374;4.882;2024-03-29T02:17:57;15.98;;;15.18;;
26038;SDS011;13815;52.374;4.882;2024-03-29T02:20:23;16.00;;;15.20;;
26038;SDS011;13815;52.374;4.882;2024-03-29T02:22:57;15.50;;;14.80;;
26038;SDS011;13815;52.374;4.882;2024-03-29T02:25:34;15.55;;;14.85;;
26038;SDS011;13815;52.374;4.882;2024-03-29T02:28:01;15.05;;;14.35;;
26038;SDS011;13815;52.374;4.882;2024-03-29T02:30:28;15.65;;;14.95;;
26038;SDS011;13815;52.374;4.882;2024-03-29T02:32:55;15.02;;;14.32;;
26038;SDS011;13815;52.374;4.882;2024-03-29T02:35:20;14.50;;;13.90;;
26038;SDS011;13815;52.374;4.882;2024-03-29T02:37:47;14.38;;;13.77;;
26038;SDS011;13815;52.374;4.882;2024-03-29T02:40:12;14.60;;;14.00;;
26038;SDS011;13815;52.374;4.882;2024-03-29T02:42:37;14.30;;;13.70;;
26038;SDS011;13815;52.374;4.882;2024-03-29T02:45:03;14.48;;;13.88;;
26038;SDS011;13815;52.374;4.882;2024-03-29T02:47:29;14.07;;;13.48;;
26038;SDS011;13815;52.374;4.882;2024-03-29T02:49:54;14.30;;;13.70;;
26038;SDS011;13815;52.374;4.882;2024-03-29T02:52:20;14.50;;;13.90;;
26038;SDS011;13815;52.374;4.882;2024-03-29T02:54:45;14.55;;;13.95;;
26038;SDS011;13815;52.374;4.882;2024-03-29T02:57:11;14.25;;;13.65;;
26038;SDS011;13815;52.374;4.882;2024-03-29T02:59:36;14.13;;;13.52;;
26038;SDS011;13815;52.374;4.882;2024-03-29T03:02:01;14.18;;;13.57;;
26038;SDS011;13815;52.374;4.882;2024-03-29T03:04:27;15.00;;;14.30;;
26038;SDS011;13815;52.374;4.882;2024-03-29T03:06:52;14.60;;;14.00;;
26038;SDS011;13815;52.374;4.882;2024-03-29T03:09:17;15.07;;;14.38;;
26038;SDS011;13815;52.374;4.882;2024-03-29T03:12:02;15.05;;;14.35;;
26038;SDS011;13815;52.374;4.882;2024-03-29T03:14:27;15.63;;;14.85;;
26038;SDS011;13815;52.374;4.882;2024-03-29T03:16:52;15.55;;;14.80;;
26038;SDS011;13815;52.374;4.882;2024-03-29T03:19:18;15.90;;;15.10;;
26038;SDS011;13815;52.374;4.882;2024-03-29T03:21:43;15.90;;;15.10;;
26038;SDS011;13815;52.374;4.882;2024-03-29T03:24:09;16.30;;;15.40;;
26038;SDS011;13815;52.374;4.882;2024-03-29T03:26:34;16.33;;;15.43;;
26038;SDS011;13815;52.374;4.882;2024-03-29T03:29:00;16.80;;;15.80;;
26038;SDS011;13815;52.374;4.882;2024-03-29T03:31:25;16.52;;;15.63;;
26038;SDS011;13815;52.374;4.882;2024-03-29T03:33:50;16.80;;;15.80;;
26038;SDS011;13815;52.374;4.882;2024-03-29T03:36:16;16.70;;;15.70;;
26038;SDS011;13815;52.374;4.882;2024-03-29T03:38:41;18.52;;;17.33;;
26038;SDS011;13815;52.374;4.882;2024-03-29T03:41:07;18.13;;;16.98;;
26038;SDS011;13815;52.374;4.882;2024-03-29T03:43:32;17.92;;;16.83;;
26038;SDS011;13815;52.374;4.882;2024-03-29T03:46:01;18.67;;;17.48;;
26038;SDS011;13815;52.374;4.882;2024-03-29T03:48:27;18.45;;;17.25;;
26038;SDS011;13815;52.374;4.882;2024-03-29T03:50:54;19.20;;;17.90;;
26038;SDS011;13815;52.374;4.882;2024-03-29T03:53:20;19.25;;;17.90;;
26038;SDS011;13815;52.374;4.882;2024-03-29T03:55:45;19.00;;;17.70;;
26038;SDS011;13815;52.374;4.882;2024-03-29T03:58:11;19.70;;;18.30;;
26038;SDS011;13815;52.374;4.882;2024-03-29T04:00:37;19.85;;;18.45;;
26038;SDS011;13815;52.374;4.882;2024-03-29T04:03:02;22.30;;;20.65;;
26038;SDS011;13815;52.374;4.882;2024-03-29T04:05:28;22.10;;;20.50;;
26038;SDS011;13815;52.374;4.882;2024-03-29T04:07:56;21.95;;;20.35;;
26038;SDS011;13815;52.374;4.882;2024-03-29T04:10:22;21.00;;;19.50;;
26038;SDS011;13815;52.374;4.882;2024-03-29T04:12:47;18.98;;;17.77;;
26038;SDS011;13815;52.374;4.882;2024-03-29T04:15:13;18.13;;;17.02;;
26038;SDS011;13815;52.374;4.882;2024-03-29T04:17:38;16.88;;;15.98;;
26038;SDS011;13815;52.374;4.882;2024-03-29T04:20:04;16.63;;;15.73;;
26038;SDS011;13815;52.374;4.882;2024-03-29T04:22:30;16.30;;;15.50;;
26038;SDS011;13815;52.374;4.882;2024-03-29T04:24:56;15.93;;;15.13;;
26038;SDS011;13815;52.374;4.882;2024-03-29T04:27:21;15.80;;;15.10;;
26038;SDS011;13815;52.374;4.882;2024-03-29T04:29:47;15.70;;;15.00;;
26038;SDS011;13815;52.374;4.882;2024-03-29T04:32:16;15.40;;;14.70;;
26038;SDS011;13815;52.374;4.882;2024-03-29T04:34:41;15.65;;;14.95;;
26038;SDS011;13815;52.374;4.882;2024-03-29T04:37:06;15.43;;;14.73;;
26038;SDS011;13815;52.374;4.882;2024-03-29T04:39:34;15.48;;;14.77;;
26038;SDS011;13815;52.374;4.882;2024-03-29T04:42:01;14.70;;;14.10;;
26038;SDS011;13815;52.374;4.882;2024-03-29T04:44:27;14.52;;;13.93;;
26038;SDS011;13815;52.374;4.882;2024-03-29T04:46:53;15.30;;;14.60;;
26038;SDS011;13815;52.374;4.882;2024-03-29T04:49:18;14.63;;;14.02;;
26038;SDS011;13815;52.374;4.882;2024-03-29T04:51:48;14.35;;;13.75;;
26038;SDS011;13815;52.374;4.882;2024-03-29T04:54:14;14.10;;;13.50;;
26038;SDS011;13815;52.374;4.882;2024-03-29T04:56:41;14.30;;;13.70;;
26038;SDS011;13815;52.374;4.882;2024-03-29T04:59:07;13.68;;;13.13;;
26038;SDS011;13815;52.374;4.882;2024-03-29T05:01:35;13.88;;;13.30;;
26038;SDS011;13815;52.374;4.882;2024-03-29T05:04:00;14.00;;;13.40;;
26038;SDS011;13815;52.374;4.882;2024-03-29T05:06:26;14.10;;;13.50;;
26038;SDS011;13815;52.374;4.882;2024-03-29T05:08:51;14.00;;;13.40;;
26038;SDS011;13815;52.374;4.882;2024-03-29T05:11:17;14.35;;;13.75;;
26038;SDS011;13815;52.374;4.882;2024-03-29T05:13:44;15.15;;;14.45;;
26038;SDS011;13815;52.374;4.882;2024-03-29T05:16:12;15.40;;;14.70;;
26038;SDS011;13815;52.374;4.882;2024-03-29T05:18:37;16.00;;;15.25;;
26038;SDS011;13815;52.374;4.882;2024-03-29T05:21:03;15.40;;;14.70;;
26038;SDS011;13815;52.374;4.882;2024-03-29T05:23:31;15.43;;;14.73;;
26038;SDS011;13815;52.374;4.882;2024-03-29T05:25:56;14.90;;;14.30;;
26038;SDS011;13815;52.374;4.882;2024-03-29T05:28:22;15.18;;;14.48;;
26038;SDS011;13815;52.374;4.882;2024-03-29T05:30:47;15.18;;;14.48;;
26038;SDS011;13815;52.374;4.882;2024-03-29T05:33:13;14.55;;;13.95;;
26038;SDS011;13815;52.374;4.882;2024-03-29T05:35:38;13.88;;;13.27;;
26038;SDS011;13815;52.374;4.882;2024-03-29T05:38:03;13.88;;;13.27;;
26038;SDS011;13815;52.374;4.882;2024-03-29T05:40:29;13.88;;;13.27;;
26038;SDS011;13815;52.374;4.882;2024-03-29T05:42:54;13.50;;;13.00;;
26038;SDS011;13815;52.374;4.882;2024-03-29T05:45:26;13.30;;;12.80;;
26038;SDS011;13815;52.374;4.882;2024-03-29T05:50:18;11.68;;;11.27;;
26038;SDS011;13815;52.374;4.882;2024-03-29T05:52:44;11.10;;;10.70;;
26038;SDS011;13815;52.374;4.882;2024-03-29T05:55:09;10.35;;;9.95;;
26038;SDS011;13815;52.374;4.882;2024-03-29T05:57:34;9.20;;;8.90;;
26038;SDS011;13815;52.374;4.882;2024-03-29T06:00:03;8.50;;;8.20;;
26038;SDS011;13815;52.374;4.882;2024-03-29T06:02:30;7.70;;;7.50;;
26038;SDS011;13815;52.374;4.882;2024-03-29T06:04:55;6.85;;;6.65;;
26038;SDS011;13815;52.374;4.882;2024-03-29T06:07:28;6.10;;;5.90;;
26038;SDS011;13815;52.374;4.882;2024-03-29T06:09:54;4.70;;;4.60;;
26038;SDS011;13815;52.374;4.882;2024-03-29T06:12:20;4.10;;;4.00;;
26038;SDS011;13815;52.374;4.882;2024-03-29T06:14:45;3.50;;;3.40;;
26038;SDS011;13815;52.374;4.882;2024-03-29T06:17:29;2.50;;;2.50;;
26038;SDS011;13815;52.374;4.882;2024-03-29T06:19:55;2.30;;;2.30;;
26038;SDS011;13815;52.374;4.882;2024-03-29T06:22:27;2.00;;;2.00;;
26038;SDS011;13815;52.374;4.882;2024-03-29T06:24:58;1.58;;;1.58;;
26038;SDS011;13815;52.374;4.882;2024-03-29T06:27:34;1.10;;;1.10;;
26038;SDS011;13815;52.374;4.882;2024-03-29T06:30:01;0.70;;;0.70;;
26038;SDS011;13815;52.374;4.882;2024-03-29T06:32:27;0.60;;;0.60;;
26038;SDS011;13815;52.374;4.882;2024-03-29T06:34:53;0.40;;;0.40;;
26038;SDS011;13815;52.374;4.882;2024-03-29T06:37:18;0.30;;;0.30;;
26038;SDS011;13815;52.374;4.882;2024-03-29T06:39:46;0.30;;;0.30;;
26038;SDS011;13815;52.374;4.882;2024-03-29T06:42:12;0.20;;;0.20;;
26038;SDS011;13815;52.374;4.882;2024-03-29T06:44:38;0.20;;;0.20;;
26038;SDS011;13815;52.374;4.882;2024-03-29T06:47:04;0.20;;;0.20;;
26038;SDS011;13815;52.374;4.882;2024-03-29T06:49:29;0.10;;;0.10;;
26038;SDS011;13815;52.374;4.882;2024-03-29T06:51:55;0.10;;;0.10;;
26038;SDS011;13815;52.374;4.882;2024-03-29T06:54:22;0.10;;;0.10;;
26038;SDS011;13815;52.374;4.882;2024-03-29T06:56:52;0.10;;;0.10;;
26038;SDS011;13815;52.374;4.882;2024-03-29T06:59:18;0.10;;;0.10;;
26038;SDS011;13815;52.374;4.882;2024-03-29T07:01:44;0.10;;;0.10;;
26038;SDS011;13815;52.374;4.882;2024-03-29T07:04:13;0.10;;;0.10;;
26038;SDS011;13815;52.374;4.882;2024-03-29T07:06:39;0.10;;;0.10;;
26038;SDS011;13815;52.374;4.882;2024-03-29T07:09:07;0.10;;;0.10;;
26038;SDS011;13815;52.374;4.882;2024-03-29T07:11:32;0.10;;;0.10;;
26038;SDS011;13815;52.374;4.882;2024-03-29T07:13:58;0.10;;;0.10;;
26038;SDS011;13815;52.374;4.882;2024-03-29T07:16:24;0.10;;;0.10;;
26038;SDS011;13815;52.374;4.882;2024-03-29T07:18:49;0.10;;;0.10;;
26038;SDS011;13815;52.374;4.882;2024-03-29T07:21:14;0.10;;;0.10;;
26038;SDS011;13815;52.374;4.882;2024-03-29T07:23:40;0.10;;;0.10;;
26038;SDS011;13815;52.374;4.882;2024-03-29T07:26:05;0.03;;;0.03;;
26038;SDS011;13815;52.374;4.882;2024-03-29T07:28:31;0.03;;;0.03;;
26038;SDS011;13815;52.374;4.882;2024-03-29T07:30:57;0.10;;;0.10;;
26038;SDS011;13815;52.374;4.882;2024-03-29T07:33:23;0.10;;;0.10;;
26038;SDS011;13815;52.374;4.882;2024-03-29T07:35:51;0.00;;;0.00;;
26038;SDS011;13815;52.374;4.882;2024-03-29T07:38:18;0.00;;;0.00;;
26038;SDS011;13815;52.374;4.882;2024-03-29T07:40:45;0.10;;;0.10;;
26038;SDS011;13815;52.374;4.882;2024-03-29T07:43:11;0.10;;;0.10;;
26038;SDS011;13815;52.374;4.882;2024-03-29T07:45:39;0.10;;;0.10;;
26038;SDS011;13815;52.374;4.882;2024-03-29T07:48:13;0.10;;;0.10;;
26038;SDS011;13815;52.374;4.882;2024-03-29T07:50:40;0.10;;;0.10;;
26038;SDS011;13815;52.374;4.882;2024-03-29T07:53:06;0.10;;;0.10;;
26038;SDS011;13815;52.374;4.882;2024-03-29T07:55:31;0.10;;;0.10;;
26038;SDS011;13815;52.374;4.882;2024-03-29T07:57:57;0.20;;;0.20;;
26038;SDS011;13815;52.374;4.882;2024-03-29T08:00:23;0.20;;;0.20;;
26038;SDS011;13815;52.374;4.882;2024-03-29T08:02:48;0.28;;;0.28;;
26038;SDS011;13815;52.374;4.882;2024-03-29T08:05:15;0.30;;;0.30;;
26038;SDS011;13815;52.374;4.882;2024-03-29T08:07:40;0.40;;;0.40;;
26038;SDS011;13815;52.374;4.882;2024-03-29T08:10:06;0.40;;;0.40;;
26038;SDS011;13815;52.374;4.882;2024-03-29T08:12:32;0.50;;;0.50;;
26038;SDS011;13815;52.374;4.882;2024-03-29T08:14:58;0.50;;;0.50;;
26038;SDS011;13815;52.374;4.882;2024-03-29T08:17:23;0.50;;;0.50;;
26038;SDS011;13815;52.374;4.882;2024-03-29T08:19:49;0.50;;;0.50;;
26038;SDS011;13815;52.374;4.882;2024-03-29T08:22:14;0.70;;;0.70;;
26038;SDS011;13815;52.374;4.882;2024-03-29T08:24:40;1.00;;;1.00;;
26038;SDS011;13815;52.374;4.882;2024-03-29T08:27:06;1.00;;;1.00;;
26038;SDS011;13815;52.374;4.882;2024-03-29T08:29:31;1.23;;;1.23;;
26038;SDS011;13815;52.374;4.882;2024-03-29T08:31:57;1.50;;;1.50;;
26038;SDS011;13815;52.374;4.882;2024-03-29T08:34:22;1.60;;;1.60;;
26038;SDS011;13815;52.374;4.882;2024-03-29T08:36:48;1.80;;;1.80;;
26038;SDS011;13815;52.374;4.882;2024-03-29T08:39:13;2.00;;;2.00;;
26038;SDS011;13815;52.374;4.882;2024-03-29T08:41:38;1.80;;;1.80;;
26038;SDS011;13815;52.374;4.882;2024-03-29T08:44:05;1.90;;;1.90;;
26038;SDS011;13815;52.374;4.882;2024-03-29T08:46:32;1.90;;;1.90;;
26038;SDS011;13815;52.374;4.882;2024-03-29T08:48:57;2.03;;;2.03;;
26038;SDS011;13815;52.374;4.882;2024-03-29T08:51:22;1.90;;;1.90;;
26038;SDS011;13815;52.374;4.882;2024-03-29T08:53:48;1.90;;;1.90;;
26038;SDS011;13815;52.374;4.882;2024-03-29T08:56:14;1.90;;;1.90;;
26038;SDS011;13815;52.374;4.882;2024-03-29T08:58:40;1.80;;;1.80;;
26038;SDS011;13815;52.374;4.882;2024-03-29T09:01:06;1.60;;;1.60;;
26038;SDS011;13815;52.374;4.882;2024-03-29T09:03:31;1.50;;;1.50;;
26038;SDS011;13815;52.374;4.882;2024-03-29T09:05:57;1.50;;;1.50;;
26038;SDS011;13815;52.374;4.882;2024-03-29T09:08:22;1.77;;;1.77;;
26038;SDS011;13815;52.374;4.882;2024-03-29T09:10:48;1.80;;;1.80;;
26038;SDS011;13815;52.374;4.882;2024-03-29T09:13:13;2.08;;;2.08;;
26038;SDS011;13815;52.374;4.882;2024-03-29T09:15:39;2.30;;;2.30;;
26038;SDS011;13815;52.374;4.882;2024-03-29T09:18:04;2.50;;;2.50;;
26038;SDS011;13815;52.374;4.882;2024-03-29T09:20:42;2.70;;;2.70;;
26038;SDS011;13815;52.374;4.882;2024-03-29T09:23:09;3.15;;;3.05;;
26038;SDS011;13815;52.374;4.882;2024-03-29T09:25:34;2.70;;;2.70;;
26038;SDS011;13815;52.374;4.882;2024-03-29T09:27:59;3.15;;;3.05;;
26038;SDS011;13815;52.374;4.882;2024-03-29T09:30:25;3.05;;;3.00;;
26038;SDS011;13815;52.374;4.882;2024-03-29T09:32:50;3.05;;;2.97;;
26038;SDS011;13815;52.374;4.882;2024-03-29T09:35:17;2.90;;;2.90;;
26038;SDS011;13815;52.374;4.882;2024-03-29T09:37:43;3.30;;;3.20;;
26038;SDS011;13815;52.374;4.882;2024-03-29T09:40:09;3.78;;;3.67;;
26038;SDS011;13815;52.374;4.882;2024-03-29T09:42:35;4.00;;;3.90;;
26038;SDS011;13815;52.374;4.882;2024-03-29T09:45:04;4.88;;;4.78;;
26038;SDS011;13815;52.374;4.882;2024-03-29T09:47:31;6.30;;;6.10;;
26038;SDS011;13815;52.374;4.882;2024-03-29T09:49:56;7.70;;;7.50;;
26038;SDS011;13815;52.374;4.882;2024-03-29T09:52:24;8.98;;;8.68;;
26038;SDS011;13815;52.374;4.882;2024-03-29T09:54:51;10.13;;;9.80;;
26038;SDS011;13815;52.374;4.882;2024-03-29T09:57:17;11.38;;;10.98;;
26038;SDS011;13815;52.374;4.882;2024-03-29T09:59:42;12.98;;;12.48;;
26038;SDS011;13815;52.374;4.882;2024-03-29T10:02:14;14.23;;;13.63;;
26038;SDS011;13815;52.374;4.882;2024-03-29T10:04:42;14.30;;;13.70;;
26038;SDS011;13815;52.374;4.882;2024-03-29T10:07:08;14.00;;;13.40;;
26038;SDS011;13815;52.374;4.882;2024-03-29T10:09:33;14.50;;;13.90;;
26038;SDS011;13815;52.374;4.882;2024-03-29T10:12:01;14.50;;;13.90;;
26038;SDS011;13815;52.374;4.882;2024-03-29T10:14:26;14.50;;;13.90;;
26038;SDS011;13815;52.374;4.882;2024-03-29T10:16:53;13.77;;;13.18;;
26038;SDS011;13815;52.374;4.882;2024-03-29T10:19:19;15.35;;;14.65;;
26038;SDS011;13815;52.374;4.882;2024-03-29T10:21:49;17.33;;;16.33;;
26038;SDS011;13815;52.374;4.882;2024-03-29T10:24:15;19.02;;;17.80;;
26038;SDS011;13815;52.374;4.882;2024-03-29T10:26:42;19.65;;;18.25;;
26038;SDS011;13815;52.374;4.882;2024-03-29T10:29:08;20.85;;;19.25;;
26038;SDS011;13815;52.374;4.882;2024-03-29T10:31:36;19.92;;;18.42;;
26038;SDS011;13815;52.374;4.882;2024-03-29T10:34:05;20.33;;;18.73;;
26038;SDS011;13815;52.374;4.882;2024-03-29T10:36:31;20.45;;;18.88;;
26038;SDS011;13815;52.374;4.882;2024-03-29T10:39:01;20.55;;;18.95;;
26038;SDS011;13815;52.374;4.882;2024-03-29T10:41:28;19.55;;;18.05;;
26038;SDS011;13815;52.374;4.882;2024-03-29T10:43:54;20.20;;;18.70;;
26038;SDS011;13815;52.374;4.882;2024-03-29T10:46:21;18.60;;;17.30;;
26038;SDS011;13815;52.374;4.882;2024-03-29T10:48:47;18.65;;;17.35;;
26038;SDS011;13815;52.374;4.882;2024-03-29T10:51:13;18.50;;;17.20;;
26038;SDS011;13815;52.374;4.882;2024-03-29T10:53:38;18.30;;;17.00;;
26038;SDS011;13815;52.374;4.882;2024-03-29T10:56:06;18.55;;;17.25;;
26038;SDS011;13815;52.374;4.882;2024-03-29T10:58:33;17.88;;;16.73;;
26038;SDS011;13815;52.374;4.882;2024-03-29T11:01:00;16.20;;;15.30;;
26038;SDS011;13815;52.374;4.882;2024-03-29T11:03:35;14.80;;;14.10;;
26038;SDS011;13815;52.374;4.882;2024-03-29T11:06:03;14.27;;;13.68;;
26038;SDS011;13815;52.374;4.882;2024-03-29T11:08:32;14.90;;;14.20;;
26038;SDS011;13815;52.374;4.882;2024-03-29T11:11:00;14.20;;;13.60;;
26038;SDS011;13815;52.374;4.882;2024-03-29T11:16:10;14.90;;;14.20;;
26038;SDS011;13815;52.374;4.882;2024-03-29T11:18:36;13.90;;;13.30;;
26038;SDS011;13815;52.374;4.882;2024-03-29T11:21:03;14.30;;;13.70;;
26038;SDS011;13815;52.374;4.882;2024-03-29T11:23:31;15.30;;;14.50;;
26038;SDS011;13815;52.374;4.882;2024-03-29T11:25:57;16.40;;;15.40;;
26038;SDS011;13815;52.374;4.882;2024-03-29T11:28:29;16.70;;;15.68;;
26038;SDS011;13815;52.374;4.882;2024-03-29T11:33:44;18.58;;;17.17;;
26038;SDS011;13815;52.374;4.882;2024-03-29T11:36:23;20.20;;;18.40;;
26038;SDS011;13815;52.374;4.882;2024-03-29T11:38:50;20.88;;;18.88;;
26038;SDS011;13815;52.374;4.882;2024-03-29T11:41:17;21.40;;;19.30;;
26038;SDS011;13815;52.374;4.882;2024-03-29T11:43:48;22.58;;;20.35;;
26038;SDS011;13815;52.374;4.882;2024-03-29T11:46:14;22.95;;;20.63;;
26038;SDS011;13815;52.374;4.882;2024-03-29T11:48:40;22.42;;;20.13;;
26038;SDS011;13815;52.374;4.882;2024-03-29T11:51:07;22.90;;;20.50;;
26038;SDS011;13815;52.374;4.882;2024-03-29T11:53:34;23.50;;;21.00;;
26038;SDS011;13815;52.374;4.882;2024-03-29T11:56:00;24.70;;;21.17;;
26038;SDS011;13815;52.374;4.882;2024-03-29T11:58:27;25.77;;;21.90;;
26038;SDS011;13815;52.374;4.882;2024-03-29T12:00:53;25.13;;;21.00;;
26038;SDS011;13815;52.374;4.882;2024-03-29T12:03:20;24.52;;;20.60;;
26038;SDS011;13815;52.374;4.882;2024-03-29T12:05:47;25.40;;;21.70;;
26038;SDS011;13815;52.374;4.882;2024-03-29T12:08:16;27.65;;;22.48;;
26038;SDS011;13815;52.374;4.882;2024-03-29T12:10:41;28.30;;;22.60;;
26038;SDS011;13815;52.374;4.882;2024-03-29T12:13:07;28.05;;;22.05;;
26038;SDS011;13815;52.374;4.882;2024-03-29T12:15:33;29.65;;;22.35;;
26038;SDS011;13815;52.374;4.882;2024-03-29T12:17:59;32.58;;;23.83;;
26038;SDS011;13815;52.374;4.882;2024-03-29T12:20:47;31.10;;;22.80;;
26038;SDS011;13815;52.374;4.882;2024-03-29T12:23:14;34.38;;;23.30;;
26038;SDS011;13815;52.374;4.882;2024-03-29T12:25:41;37.28;;;25.25;;
26038;SDS011;13815;52.374;4.882;2024-03-29T12:28:06;35.85;;;24.35;;
26038;SDS011;13815;52.374;4.882;2024-03-29T12:30:32;37.38;;;24.95;;
26038;SDS011;13815;52.374;4.882;2024-03-29T12:33:07;37.67;;;24.80;;
26038;SDS011;13815;52.374;4.882;2024-03-29T12:35:36;38.45;;;25.98;;
26038;SDS011;13815;52.374;4.882;2024-03-29T12:38:02;35.90;;;22.23;;
26038;SDS011;13815;52.374;4.882;2024-03-29T12:40:28;39.42;;;24.35;;
26038;SDS011;13815;52.374;4.882;2024-03-29T12:42:57;40.97;;;25.05;;
26038;SDS011;13815;52.374;4.882;2024-03-29T12:45:23;38.90;;;22.55;;
26038;SDS011;13815;52.374;4.882;2024-03-29T12:47:49;38.47;;;22.27;;
26038;SDS011;13815;52.374;4.882;2024-03-29T12:50:25;37.88;;;22.10;;
26038;SDS011;13815;52.374;4.882;2024-03-29T12:52:53;40.05;;;23.20;;
26038;SDS011;13815;52.374;4.882;2024-03-29T12:55:19;39.88;;;23.30;;
26038;SDS011;13815;52.374;4.882;2024-03-29T12:57:45;40.75;;;22.50;;
26038;SDS011;13815;52.374;4.882;2024-03-29T13:00:11;41.35;;;22.73;;
26038;SDS011;13815;52.374;4.882;2024-03-29T13:02:37;40.92;;;22.50;;
26038;SDS011;13815;52.374;4.882;2024-03-29T13:05:04;43.38;;;23.55;;
26038;SDS011;13815;52.374;4.882;2024-03-29T13:07:33;41.75;;;22.90;;
26038;SDS011;13815;52.374;4.882;2024-03-29T13:09:59;42.72;;;24.27;;
26038;SDS011;13815;52.374;4.882;2024-03-29T13:12:28;42.50;;;24.38;;
26038;SDS011;13815;52.374;4.882;2024-03-29T13:14:54;42.33;;;23.98;;
26038;SDS011;13815;52.374;4.882;2024-03-29T13:17:19;42.45;;;23.92;;
26038;SDS011;13815;52.374;4.882;2024-03-29T13:19:45;40.55;;;22.65;;
26038;SDS011;13815;52.374;4.882;2024-03-29T13:22:10;40.90;;;23.67;;
26038;SDS011;13815;52.374;4.882;2024-03-29T13:24:36;39.88;;;23.33;;
26038;SDS011;13815;52.374;4.882;2024-03-29T13:27:02;39.75;;;22.75;;
26038;SDS011;13815;52.374;4.882;2024-03-29T13:29:28;41.70;;;25.33;;
26038;SDS011;13815;52.374;4.882;2024-03-29T13:31:53;41.65;;;24.75;;
26038;SDS011;13815;52.374;4.882;2024-03-29T13:34:19;41.95;;;26.17;;
26038;SDS011;13815;52.374;4.882;2024-03-29T13:36:45;43.70;;;27.35;;
26038;SDS011;13815;52.374;4.882;2024-03-29T13:39:11;40.47;;;25.75;;
26038;SDS011;13815;52.374;4.882;2024-03-29T13:41:38;44.22;;;27.60;;
26038;SDS011;13815;52.374;4.882;2024-03-29T13:44:05;43.95;;;26.70;;
26038;SDS011;13815;52.374;4.882;2024-03-29T13:46:34;44.05;;;27.08;;
26038;SDS011;13815;52.374;4.882;2024-03-29T13:49:00;43.15;;;26.20;;
26038;SDS011;13815;52.374;4.882;2024-03-29T13:51:26;43.75;;;26.58;;
26038;SDS011;13815;52.374;4.882;2024-03-29T13:53:52;43.58;;;26.77;;
26038;SDS011;13815;52.374;4.882;2024-03-29T13:56:19;44.00;;;27.10;;
26038;SDS011;13815;52.374;4.882;2024-03-29T13:58:44;44.83;;;27.30;;
26038;SDS011;13815;52.374;4.882;2024-03-29T14:01:10;45.78;;;28.20;;
26038;SDS011;13815;52.374;4.882;2024-03-29T14:03:35;48.10;;;30.05;;
26038;SDS011;13815;52.374;4.882;2024-03-29T14:06:00;43.88;;;27.70;;
26038;SDS011;13815;52.374;4.882;2024-03-29T14:08:29;42.33;;;26.60;;
26038;SDS011;13815;52.374;4.882;2024-03-29T14:11:13;43.65;;;26.50;;
26038;SDS011;13815;52.374;4.882;2024-03-29T14:13:39;43.25;;;25.60;;
26038;SDS011;13815;52.374;4.882;2024-03-29T14:16:05;43.65;;;26.55;;
26038;SDS011;13815;52.374;4.882;2024-03-29T14:18:31;45.20;;;27.23;;
26038;SDS011;13815;52.374;4.882;2024-03-29T14:20:56;44.35;;;26.95;;
26038;SDS011;13815;52.374;4.882;2024-03-29T14:23:22;42.35;;;24.50;;
26038;SDS011;13815;52.374;4.882;2024-03-29T14:25:50;43.95;;;26.60;;
26038;SDS011;13815;52.374;4.882;2024-03-29T14:28:16;45.85;;;27.75;;
26038;SDS011;13815;52.374;4.882;2024-03-29T14:30:41;43.80;;;25.48;;
26038;SDS011;13815;52.374;4.882;2024-03-29T14:33:06;44.78;;;26.33;;